Time;durP1;ratioP1;P1;durP2;ratioP2;P2;SDS_P1;SDS_P2;PMS_P1;PMS_P2;Temp;Humidity;BMP_temperature;BMP_pressure;BME280_temperature;BME280_humidity;BME280_pressure;Samples;Min_cycle;Max_cycle;Signal;HPM_P1;HPM_P2
2023/08/20 00:00:53;;;;;;;7.00;2.67;;;;;;;19.50;82.77;101819.16;3611953;39;20055;-66
2023/08/20 00:03:19;;;;;;;7.43;2.90;;;;;;;19.45;83.62;101826.88;3613701;39;20215;-66
2023/08/20 00:05:44;;;;;;;10.25;3.08;;;;;;;19.46;83.88;101825.88;3613558;39;20063;-66
2023/08/20 00:08:10;;;;;;;7.07;2.58;;;;;;;19.49;83.54;101834.66;3614317;39;20065;-64
2023/08/20 00:10:36;;;;;;;6.15;2.72;;;;;;;19.48;84.38;101837.53;3614773;39;20293;-64
2023/08/20 00:13:02;;;;;;;7.72;2.80;;;;;;;19.43;83.95;101835.16;3613977;39;20397;-64
2023/08/20 00:15:27;;;;;;;5.45;2.30;;;;;;;19.40;84.65;101838.16;3613171;39;20293;-65
2023/08/20 00:17:55;;;;;;;6.93;2.65;;;;;;;19.36;84.43;101824.91;3613121;39;20712;-64
2023/08/20 00:20:22;;;;;;;7.40;2.78;;;;;;;19.34;84.50;101827.75;3611596;39;20053;-64
2023/08/20 00:22:48;;;;;;;8.35;3.03;;;;;;;19.28;84.79;101821.94;3612715;39;20091;-64
2023/08/20 00:25:17;;;;;;;7.38;2.92;;;;;;;19.09;85.74;101796.19;3615827;39;20106;-64
2023/08/20 00:27:44;;;;;;;9.70;2.75;;;;;;;19.12;86.57;101831.38;3617311;39;20126;-64
2023/08/20 00:30:10;;;;;;;8.50;3.28;;;;;;;19.11;87.79;101829.66;3612701;39;20049;-64
2023/08/20 00:32:37;;;;;;;4.22;2.60;;;;;;;19.09;87.22;101826.19;3613867;39;20401;-64
2023/08/20 00:35:04;;;;;;;7.72;3.08;;;;;;;18.89;87.96;101802.44;3614134;39;20054;-64
2023/08/20 00:37:31;;;;;;;7.13;3.13;;;;;;;19.06;87.83;101840.09;3615624;39;20098;-65
2023/08/20 00:39:57;;;;;;;9.25;3.35;;;;;;;19.04;86.63;101842.06;3615729;39;20069;-63
2023/08/20 00:42:27;;;;;;;12.60;3.70;;;;;;;19.02;86.66;101853.06;3614244;39;20407;-64
2023/08/20 00:44:53;;;;;;;5.72;2.88;;;;;;;19.02;86.04;101852.22;3614275;39;20193;-63
2023/08/20 00:47:20;;;;;;;9.20;3.17;;;;;;;18.99;85.87;101856.03;3615525;39;20047;-63
2023/08/20 00:49:48;;;;;;;7.05;3.15;;;;;;;18.97;86.48;101863.50;3612067;39;20393;-63
2023/08/20 00:52:17;;;;;;;6.72;2.90;;;;;;;18.83;86.42;101835.63;3607405;39;20179;-63
2023/08/20 00:54:46;;;;;;;5.90;3.00;;;;;;;18.99;86.77;101857.91;3612409;39;20143;-64
2023/08/20 00:57:17;;;;;;;8.00;3.08;;;;;;;18.95;86.65;101857.28;3613401;39;20051;-64
2023/08/20 00:59:47;;;;;;;9.52;3.30;;;;;;;18.93;87.12;101869.31;3612144;39;20116;-64
2023/08/20 01:02:12;;;;;;;6.20;3.10;;;;;;;18.91;87.34;101876.75;3613061;39;20063;-64
2023/08/20 01:04:38;;;;;;;6.47;3.33;;;;;;;18.94;87.79;101887.41;3613505;39;20706;-64
2023/08/20 01:08:01;;;;;;;6.40;3.20;;;;;;;18.93;87.99;101896.56;3614854;39;20266;-64
2023/08/20 01:10:37;;;;;;;6.97;3.22;;;;;;;19.02;87.72;101902.13;3607451;39;20087;-64
2023/08/20 01:13:04;;;;;;;5.45;3.20;;;;;;;19.09;87.62;101898.91;3612665;39;20095;-64
2023/08/20 01:15:30;;;;;;;9.98;3.03;;;;;;;19.16;87.40;101897.44;3613739;39;20400;-64
2023/08/20 01:17:55;;;;;;;9.10;3.63;;;;;;;19.20;87.18;101904.38;3613389;39;21235;-64
2023/08/20 01:20:32;;;;;;;7.00;3.88;;;;;;;19.22;87.38;101906.00;3613206;39;20362;-64
2023/08/20 01:23:39;;;;;;;6.50;2.75;;;;;;;19.26;87.16;101892.97;3614816;39;20501;-64
2023/08/20 01:26:49;;;;;;;7.65;3.20;;;;;;;19.30;87.08;101889.00;3613898;39;20123;-64
2023/08/20 01:29:15;;;;;;;10.50;3.40;;;;;;;19.36;85.79;101893.09;3612527;39;20196;-64
2023/08/20 01:31:44;;;;;;;5.38;3.40;;;;;;;19.39;85.79;101887.38;3612304;39;20053;-64
2023/08/20 01:34:10;;;;;;;8.32;3.42;;;;;;;19.42;86.04;101889.84;3613580;39;20111;-64
2023/08/20 01:36:37;;;;;;;8.15;2.95;;;;;;;19.46;84.98;101894.06;3612404;39;20051;-64
2023/08/20 01:39:04;;;;;;;6.75;3.10;;;;;;;19.32;84.93;101861.63;3601948;39;20105;-64
2023/08/20 01:41:30;;;;;;;4.80;2.65;;;;;;;19.53;84.38;101899.88;3613022;39;20050;-64
2023/08/20 01:43:56;;;;;;;7.78;2.97;;;;;;;19.58;83.66;101903.09;3612075;39;20110;-64
2023/08/20 01:46:22;;;;;;;5.93;2.47;;;;;;;19.62;83.46;101902.69;3612844;39;20102;-64
2023/08/20 01:48:47;;;;;;;4.60;2.70;;;;;;;19.68;84.57;101898.63;3613601;39;20051;-64
2023/08/20 01:51:13;;;;;;;6.38;2.95;;;;;;;19.15;84.05;101803.88;3614414;39;20050;-64
2023/08/20 01:53:39;;;;;;;5.68;2.90;;;;;;;19.69;83.02;101898.53;3614487;39;20061;-64
2023/08/20 01:56:10;;;;;;;5.43;2.53;;;;;;;19.71;83.33;101909.28;3614414;39;20431;-64
2023/08/20 01:58:36;;;;;;;6.22;2.70;;;;;;;19.73;83.60;101900.97;3611384;39;20066;-64
2023/08/20 02:01:02;;;;;;;8.05;2.70;;;;;;;19.78;82.98;101912.38;3611244;39;20058;-64
2023/08/20 02:03:28;;;;;;;8.35;2.92;;;;;;;19.81;83.28;101914.84;3613159;39;20301;-64
2023/08/20 02:05:54;;;;;;;6.07;2.92;;;;;;;19.82;82.24;101922.03;3611771;39;20058;-64
2023/08/20 02:08:20;;;;;;;6.13;2.97;;;;;;;19.74;81.72;101903.56;3614011;39;20062;-64
2023/08/20 02:10:46;;;;;;;5.35;2.63;;;;;;;19.87;82.40;101919.78;3612286;39;20398;-64
2023/08/20 02:13:11;;;;;;;4.05;2.50;;;;;;;19.91;82.36;101922.13;3615282;39;20379;-64
2023/08/20 02:15:37;;;;;;;8.38;2.95;;;;;;;19.91;81.83;101918.53;3613614;39;20227;-64
2023/08/20 02:18:03;;;;;;;5.97;2.75;;;;;;;19.95;82.45;101920.03;3616109;39;20385;-64
2023/08/20 02:20:28;;;;;;;5.95;2.58;;;;;;;;;;3612025;39;20378;-64
2023/08/20 02:22:54;;;;;;;5.60;2.50;;;;;;;19.93;82.28;101922.00;3614066;39;20103;-64
2023/08/20 02:25:20;;;;;;;8.23;2.58;;;;;;;19.94;82.40;101931.91;3613604;39;20054;-64
2023/08/20 02:27:45;;;;;;;5.32;2.50;;;;;;;19.91;82.63;101934.91;3614228;39;20062;-64
2023/08/20 02:30:13;;;;;;;7.30;2.72;;;;;;;19.92;82.55;101931.19;3614436;39;20126;-64
2023/08/20 02:32:39;;;;;;;7.43;2.60;;;;;;;19.91;83.68;101933.03;3615352;39;20410;-64
2023/08/20 02:35:05;;;;;;;6.93;2.75;;;;;;;19.90;83.62;101922.25;3614715;39;20300;-64
2023/08/20 02:37:32;;;;;;;8.50;2.75;;;;;;;19.88;83.74;101921.50;3608554;39;20302;-64
2023/08/20 02:39:58;;;;;;;8.25;4.43;;;;;;;19.86;83.87;101915.34;3613258;39;20087;-64
2023/08/20 02:42:23;;;;;;;7.22;4.03;;;;;;;19.84;83.77;101917.31;3613807;39;20317;-64
2023/08/20 02:44:49;;;;;;;8.27;3.38;;;;;;;19.34;83.90;101835.06;3615585;39;20054;-64
2023/08/20 02:47:15;;;;;;;5.63;3.17;;;;;;;19.77;84.67;101913.38;3614014;39;20059;-64
2023/08/20 02:49:40;;;;;;;6.40;3.08;;;;;;;19.76;84.15;101914.34;3614514;39;20062;-64
2023/08/20 02:52:06;;;;;;;5.80;3.10;;;;;;;19.70;84.21;101913.88;3615397;39;20261;-62
2023/08/20 02:54:32;;;;;;;6.50;2.83;;;;;;;19.63;84.71;101909.00;3614598;39;20335;-62
2023/08/20 02:56:59;;;;;;;7.13;2.75;;;;;;;19.57;84.48;101909.53;3614012;39;20140;-62
2023/08/20 02:59:24;;;;;;;7.53;2.58;;;;;;;19.51;84.60;101913.63;3615232;39;20118;-62
2023/08/20 03:01:50;;;;;;;7.10;2.50;;;;;;;19.44;84.98;101907.81;3613738;39;20565;-62
2023/08/20 03:04:15;;;;;;;6.90;2.97;;;;;;;19.39;85.30;101914.66;3615048;39;20360;-62
2023/08/20 03:06:42;;;;;;;6.30;2.85;;;;;;;19.29;85.50;101903.63;3604670;39;20095;-62
2023/08/20 03:09:07;;;;;;;8.43;2.50;;;;;;;19.26;85.88;101898.41;3612262;39;20063;-62
2023/08/20 03:11:33;;;;;;;7.85;2.70;;;;;;;19.20;86.33;101893.47;3615574;39;20081;-62
2023/08/20 03:13:58;;;;;;;5.28;2.70;;;;;;;19.14;86.41;101902.16;3615782;39;20066;-62
2023/08/20 03:16:24;;;;;;;7.65;3.20;;;;;;;19.08;86.88;101902.63;3614156;39;20307;-62
2023/08/20 03:18:50;;;;;;;7.88;2.60;;;;;;;19.01;86.90;101897.69;3612629;39;20310;-62
2023/08/20 03:21:15;;;;;;;4.75;2.97;;;;;;;18.93;87.16;101891.97;3614412;39;20059;-62
2023/08/20 03:23:41;;;;;;;7.00;2.80;;;;;;;18.90;86.71;101903.13;3613002;39;20345;-64
2023/08/20 03:26:06;;;;;;;7.47;2.90;;;;;;;18.84;86.81;101898.19;3613465;39;20047;-63
2023/08/20 03:28:32;;;;;;;5.32;2.90;;;;;;;18.80;87.91;101902.13;3614774;39;20074;-62
2023/08/20 03:31:01;;;;;;;9.43;3.03;;;;;;;18.62;87.71;101879.91;3614716;39;20067;-62
2023/08/20 03:33:27;;;;;;;5.40;2.80;;;;;;;18.72;88.47;101902.72;3614019;39;20111;-62
2023/08/20 03:35:53;;;;;;;7.55;3.00;;;;;;;18.68;88.82;101897.59;3615188;39;20063;-62
2023/08/20 03:38:19;;;;;;;4.63;2.83;;;;;;;18.60;89.22;101898.22;3612255;39;20054;-62
2023/08/20 03:40:45;;;;;;;8.23;2.90;;;;;;;18.58;89.44;101892.00;3613363;39;20279;-62
2023/08/20 03:43:10;;;;;;;4.03;2.90;;;;;;;18.58;88.64;101897.47;3597194;39;20327;-62
2023/08/20 03:45:36;;;;;;;7.35;2.97;;;;;;;18.53;90.01;101896.97;3613801;39;20061;-62
2023/08/20 03:48:02;;;;;;;6.00;3.10;;;;;;;18.49;89.63;101901.78;3614138;39;20054;-62
2023/08/20 03:50:28;;;;;;;8.60;3.00;;;;;;;18.46;90.98;101899.31;3614798;39;20068;-62
2023/08/20 03:52:53;;;;;;;5.75;3.22;;;;;;;18.43;91.11;101909.56;3613875;39;20070;-63
2023/08/20 03:55:19;;;;;;;6.93;2.80;;;;;;;18.42;91.61;101907.81;3612916;39;20124;-62
2023/08/20 03:57:45;;;;;;;4.32;2.80;;;;;;;18.22;90.58;101884.88;3615666;39;20047;-62
2023/08/20 04:00:12;;;;;;;4.20;2.70;;;;;;;18.33;90.37;101904.84;3613397;39;20042;-62
2023/08/20 04:02:38;;;;;;;7.35;3.08;;;;;;;18.30;91.17;101907.81;3614003;39;20052;-62
2023/08/20 04:05:04;;;;;;;6.55;3.13;;;;;;;18.28;91.39;101911.63;3613826;39;20107;-62
2023/08/20 04:07:30;;;;;;;6.75;2.80;;;;;;;18.27;91.45;101924.38;3615236;39;20042;-62
2023/08/20 04:09:55;;;;;;;6.65;3.17;;;;;;;18.22;91.97;101918.41;3614890;39;20070;-62
2023/08/20 04:12:21;;;;;;;6.70;3.05;;;;;;;18.24;92.32;101927.31;3614368;39;20065;-62
2023/08/20 04:14:47;;;;;;;7.15;3.53;;;;;;;18.21;91.88;101933.00;3613901;39;20384;-62
2023/08/20 04:17:12;;;;;;;4.80;3.38;;;;;;;18.17;91.65;101931.47;3613303;39;20051;-62
2023/08/20 04:19:38;;;;;;;7.28;3.50;;;;;;;18.12;92.27;101932.84;3613185;39;20051;-62
2023/08/20 04:22:03;;;;;;;7.05;3.47;;;;;;;18.08;92.82;101932.22;3614871;39;20054;-62
2023/08/20 04:24:29;;;;;;;7.38;3.58;;;;;;;18.03;92.63;101928.97;3604122;39;20317;-62
2023/08/20 04:26:55;;;;;;;4.55;3.13;;;;;;;17.99;93.40;101928.31;3614785;39;20059;-62
2023/08/20 04:29:20;;;;;;;5.57;3.58;;;;;;;17.98;92.84;101936.59;3613088;39;20065;-62
2023/08/20 04:31:46;;;;;;;4.93;3.25;;;;;;;17.95;92.61;101931.38;3612776;39;20539;-62
2023/08/20 04:34:11;;;;;;;5.72;3.17;;;;;;;17.95;92.72;101934.09;3615440;39;20046;-63
2023/08/20 04:36:37;;;;;;;8.38;4.53;;;;;;;17.94;93.14;101937.81;3614787;39;20046;-63
2023/08/20 04:39:04;;;;;;;9.00;3.88;;;;;;;17.95;93.23;101936.81;3615495;39;20504;-63
2023/08/20 04:41:30;;;;;;;5.10;3.75;;;;;;;17.95;93.67;101943.16;3614569;39;20057;-63
2023/08/20 04:43:55;;;;;;;6.18;3.88;;;;;;;17.93;93.31;101939.66;3615940;39;20089;-63
2023/08/20 04:46:21;;;;;;;8.65;3.65;;;;;;;17.88;93.72;101935.56;3616812;39;20169;-63
2023/08/20 04:48:46;;;;;;;8.70;3.55;;;;;;;17.85;93.68;101931.19;3616138;39;20165;-63
2023/08/20 04:51:12;;;;;;;8.93;3.55;;;;;;;17.82;94.30;101929.59;3614560;39;20066;-63
2023/08/20 04:53:38;;;;;;;7.75;3.58;;;;;;;17.82;94.09;101937.75;3613925;39;20312;-63
2023/08/20 04:56:03;;;;;;;5.57;3.25;;;;;;;17.82;93.60;101940.50;3616520;39;20056;-63
2023/08/20 04:58:29;;;;;;;5.28;3.72;;;;;;;17.85;94.26;101937.50;3614133;39;20416;-63
2023/08/20 05:00:54;;;;;;;7.53;3.50;;;;;;;17.86;94.26;101939.25;3615747;39;20495;-63
2023/08/20 05:03:20;;;;;;;8.98;3.60;;;;;;;17.88;93.52;101935.56;3613034;39;20063;-63
2023/08/20 05:05:52;;;;;;;4.28;3.22;;;;;;;17.91;93.41;101947.06;3613076;39;20047;-63
2023/08/20 05:08:17;;;;;;;7.25;3.50;;;;;;;17.92;93.11;101945.22;3617196;39;20120;-63
2023/08/20 05:10:43;;;;;;;5.40;3.40;;;;;;;17.95;93.78;101950.41;3616867;39;20350;-63
2023/08/20 05:13:09;;;;;;;6.60;3.83;;;;;;;17.95;93.16;101947.69;3614288;39;20069;-63
2023/08/20 05:15:34;;;;;;;7.25;4.03;;;;;;;17.95;93.45;101950.41;3603442;39;20069;-63
2023/08/20 05:18:00;;;;;;;7.43;3.90;;;;;;;17.92;93.90;101945.22;3614373;39;20062;-63
2023/08/20 05:20:25;;;;;;;9.15;4.38;;;;;;;17.96;93.58;101944.00;3612479;39;20054;-63
2023/08/20 05:22:51;;;;;;;6.95;4.10;;;;;;;17.97;94.39;101945.75;3615561;39;20051;-63
2023/08/20 05:25:17;;;;;;;7.85;4.32;;;;;;;17.84;93.88;101924.91;3618733;39;20050;-63
2023/08/20 05:27:42;;;;;;;6.75;3.83;;;;;;;18.09;93.49;101958.44;3615749;39;20305;-63
2023/08/20 05:30:08;;;;;;;5.97;3.70;;;;;;;18.13;93.96;101968.09;3612782;39;20581;-63
2023/08/20 05:32:34;;;;;;;6.47;3.60;;;;;;;18.17;93.59;101966.88;3604851;39;20099;-63
2023/08/20 05:35:00;;;;;;;8.43;4.03;;;;;;;18.21;93.32;101954.78;3616164;39;20102;-63
2023/08/20 05:37:25;;;;;;;5.80;3.70;;;;;;;18.27;93.65;101964.34;3613657;39;20341;-63
2023/08/20 05:39:51;;;;;;;8.32;4.00;;;;;;;18.29;92.20;101963.22;3613692;39;20076;-63
2023/08/20 05:42:16;;;;;;;6.18;3.55;;;;;;;18.29;92.80;101963.22;3610896;39;20061;-63
2023/08/20 05:44:42;;;;;;;12.70;4.32;;;;;;;18.20;91.94;101935.81;3612412;39;20420;-63
2023/08/20 05:47:08;;;;;;;5.35;3.55;;;;;;;18.42;92.09;101970.44;3614066;39;20084;-63
2023/08/20 05:49:33;;;;;;;6.32;3.95;;;;;;;18.23;91.80;101936.47;3613856;39;20053;-63
2023/08/20 05:51:59;;;;;;;5.63;3.75;;;;;;;18.44;91.24;101960.31;3615881;39;20051;-63
2023/08/20 05:54:25;;;;;;;10.38;4.10;;;;;;;18.48;91.24;101972.69;3615661;39;20132;-64
2023/08/20 05:56:50;;;;;;;7.75;3.80;;;;;;;17.95;90.77;101872.41;3613427;39;20051;-63
2023/08/20 05:59:16;;;;;;;8.32;3.83;;;;;;;18.52;90.34;101957.84;3613314;39;20047;-64
2023/08/20 06:01:43;;;;;;;10.05;3.47;;;;;;;18.63;89.75;101966.06;3615121;39;20051;-64
2023/08/20 06:04:09;;;;;;;8.30;3.75;;;;;;;18.70;87.88;101963.72;3612546;39;20042;-64
2023/08/20 06:06:35;;;;;;;6.53;3.60;;;;;;;18.72;87.63;101956.31;3611938;39;20045;-64
2023/08/20 06:09:01;;;;;;;9.05;3.40;;;;;;;18.86;87.55;101966.16;3614767;39;20314;-64
2023/08/20 06:11:26;;;;;;;8.18;3.67;;;;;;;18.92;87.57;101958.34;3614154;39;20051;-64
2023/08/20 06:13:52;;;;;;;7.50;3.60;;;;;;;19.00;87.36;101964.09;3614901;39;21647;-64
2023/08/20 06:16:18;;;;;;;8.57;3.50;;;;;;;19.05;86.61;101960.97;3616463;39;20054;-64
2023/08/20 06:18:43;;;;;;;6.82;3.22;;;;;;;19.12;85.46;101962.22;3613547;39;20619;-64
2023/08/20 06:21:09;;;;;;;8.95;4.15;;;;;;;19.20;85.09;101967.94;3614092;39;20213;-63
2023/08/20 06:23:34;;;;;;;9.13;3.50;;;;;;;19.31;84.65;101971.66;3613532;39;20054;-63
2023/08/20 06:26:00;;;;;;;7.88;3.30;;;;;;;19.39;84.35;101974.63;3616711;39;20054;-64
2023/08/20 06:28:26;;;;;;;7.00;3.50;;;;;;;19.49;83.25;101975.63;3613762;39;20065;-63
2023/08/20 06:30:51;;;;;;;11.45;4.43;;;;;;;19.58;82.42;101966.69;3615788;39;20818;-64
2023/08/20 06:33:17;;;;;;;10.20;4.18;;;;;;;19.70;81.74;101973.03;3611995;39;20055;-64
2023/08/20 06:35:42;;;;;;;6.45;2.92;;;;;;;19.83;81.00;101975.63;3611965;39;20070;-63
2023/08/20 06:38:08;;;;;;;8.95;3.00;;;;;;;19.94;80.98;101973.72;3612711;39;20069;-63
2023/08/20 06:40:34;;;;;;;7.40;3.50;;;;;;;20.06;79.50;101980.03;3613909;39;20082;-63
2023/08/20 06:42:59;;;;;;;7.85;3.00;;;;;;;20.19;79.14;101982.59;3612720;39;20050;-63
2023/08/20 06:45:25;;;;;;;9.95;3.53;;;;;;;20.32;79.60;101980.53;3612961;39;20081;-63
2023/08/20 06:47:51;;;;;;;10.02;3.25;;;;;;;20.45;77.92;101983.09;3613947;39;20062;-63
2023/08/20 06:50:17;;;;;;;7.80;3.30;;;;;;;20.60;77.49;101984.56;3611569;39;20082;-63
2023/08/20 06:52:42;;;;;;;7.88;3.38;;;;;;;20.74;76.04;101996.16;3610601;39;20415;-64
2023/08/20 06:55:09;;;;;;;9.57;3.30;;;;;;;20.80;75.23;101971.03;3613760;39;20094;-63
2023/08/20 06:57:35;;;;;;;8.93;3.50;;;;;;;21.02;74.36;101984.56;3614096;39;20059;-64
2023/08/20 07:00:01;;;;;;;8.15;3.60;;;;;;;21.16;73.05;101986.09;3616508;39;20050;-66
2023/08/20 07:02:26;;;;;;;9.07;3.47;;;;;;;21.32;72.45;101988.31;3618861;39;20320;-66
2023/08/20 07:04:52;;;;;;;8.18;3.70;;;;;;;21.50;73.05;101983.09;3618900;39;20286;-67
2023/08/20 07:07:17;;;;;;;11.77;4.38;;;;;;;21.67;72.15;101989.81;3616269;39;20073;-66
2023/08/20 07:09:43;;;;;;;6.15;3.53;;;;;;;21.79;70.15;101989.56;3612259;39;20436;-66
2023/08/20 07:12:09;;;;;;;9.18;3.35;;;;;;;21.96;69.84;101996.22;3614842;39;20054;-66
2023/08/20 07:14:34;;;;;;;10.50;6.30;;;;;;;22.09;68.42;102003.31;3616116;39;20527;-66
2023/08/20 07:17:02;;;;;;;12.38;4.80;;;;;;;22.23;67.48;102001.06;3616289;39;20058;-66
2023/08/20 07:19:28;;;;;;;8.60;3.83;;;;;;;22.37;66.50;101993.44;3614020;39;20043;-66
2023/08/20 07:21:54;;;;;;;7.85;3.17;;;;;;;22.51;65.82;102005.81;3616037;39;20066;-66
2023/08/20 07:24:25;;;;;;;6.18;2.90;;;;;;;22.43;64.92;101970.94;3614294;39;20069;-66
2023/08/20 07:26:59;;;;;;;7.22;3.22;;;;;;;22.70;64.34;102000.34;3617847;39;20086;-66
2023/08/20 07:29:25;;;;;;;8.55;3.22;;;;;;;22.85;64.75;102004.38;3616787;39;20059;-66
2023/08/20 07:31:51;;;;;;;8.02;3.25;;;;;;;22.94;62.27;101998.03;3616688;39;20053;-66
2023/08/20 07:34:16;;;;;;;6.75;3.28;;;;;;;23.09;63.10;101997.56;3613887;39;20074;-66
2023/08/20 07:36:42;;;;;;;6.82;3.08;;;;;;;23.23;63.81;102001.72;3612893;39;20063;-66
2023/08/20 07:39:08;;;;;;;5.85;2.85;;;;;;;23.37;62.31;101998.47;3616151;39;20058;-66
2023/08/20 07:41:34;;;;;;;6.10;2.78;;;;;;;23.50;61.68;102011.88;3618089;39;20077;-66
2023/08/20 07:44:00;;;;;;;5.60;2.65;;;;;;;23.52;61.49;101990.63;3613470;39;20059;-67
2023/08/20 07:46:26;;;;;;;5.40;2.97;;;;;;;23.70;60.76;102004.47;3606318;39;20448;-66
2023/08/20 07:48:52;;;;;;;5.18;2.38;;;;;;;23.87;60.49;102006.38;3616216;39;20096;-66
2023/08/20 07:51:17;;;;;;;8.88;2.50;;;;;;;24.05;59.17;102009.19;3612098;39;20417;-65
2023/08/20 07:53:43;;;;;;;5.68;2.13;;;;;;;24.17;58.15;102018.94;3619902;39;20049;-66
2023/08/20 07:56:09;;;;;;;6.65;2.20;;;;;;;24.28;57.76;102018.69;3615531;39;20074;-66
2023/08/20 07:58:35;;;;;;;5.10;2.30;;;;;;;24.40;57.85;102013.84;3614024;39;20050;-66
2023/08/20 08:01:00;;;;;;;5.68;2.30;;;;;;;24.57;55.87;102022.28;3619082;39;20078;-66
2023/08/20 08:03:26;;;;;;;2.83;1.70;;;;;;;24.70;55.98;102015.34;3620937;39;20054;-66
2023/08/20 08:05:54;;;;;;;4.68;1.67;;;;;;;24.83;55.33;102022.34;3619530;39;20050;-66
2023/08/20 08:08:21;;;;;;;4.10;1.90;;;;;;;24.84;54.97;102004.81;3616945;39;20066;-65
2023/08/20 08:10:46;;;;;;;3.33;1.90;;;;;;;25.07;53.57;102025.28;3617104;39;20119;-65
2023/08/20 08:13:14;;;;;;;3.60;1.45;;;;;;;25.10;52.89;102032.34;3611283;39;20062;-65
2023/08/20 08:15:40;;;;;;;3.90;2.10;;;;;;;25.18;52.12;102036.06;3613242;39;20053;-66
2023/08/20 08:18:07;;;;;;;4.10;1.65;;;;;;;25.18;52.47;102024.16;3614699;39;20062;-65
2023/08/20 08:20:33;;;;;;;5.22;1.77;;;;;;;25.40;53.49;102033.78;3614614;39;20090;-65
2023/08/20 08:23:00;;;;;;;4.22;1.85;;;;;;;25.47;51.91;102030.22;3614862;39;20058;-65
2023/08/20 08:25:26;;;;;;;4.35;1.58;;;;;;;25.55;52.94;102043.16;3615641;39;20063;-65
2023/08/20 08:27:52;;;;;;;6.53;2.22;;;;;;;25.63;52.52;102029.44;3617417;39;20082;-65
2023/08/20 08:30:17;;;;;;;4.30;2.08;;;;;;;25.69;51.43;102037.06;3615471;39;20059;-65
2023/08/20 08:32:43;;;;;;;4.75;2.33;;;;;;;25.79;51.29;102020.41;3615075;39;20142;-65
2023/08/20 08:35:09;;;;;;;4.45;1.83;;;;;;;26.03;51.79;102029.81;3615514;39;20055;-65
2023/08/20 08:37:34;;;;;;;4.47;1.80;;;;;;;26.19;49.69;102026.25;3617045;39;20055;-65
2023/08/20 08:40:01;;;;;;;4.53;1.58;;;;;;;26.21;49.33;102024.19;3615045;39;20381;-65
2023/08/20 08:42:26;;;;;;;3.40;1.80;;;;;;;26.27;50.31;102031.78;3614826;39;20517;-65
2023/08/20 08:44:52;;;;;;;3.90;1.45;;;;;;;26.37;49.93;102033.34;3613436;39;20073;-65
2023/08/20 08:47:19;;;;;;;4.00;1.70;;;;;;;26.45;48.46;102035.28;3608772;39;20163;-65
2023/08/20 08:49:48;;;;;;;4.65;1.55;;;;;;;26.49;48.11;102044.09;3613730;39;20117;-65
2023/08/20 08:52:14;;;;;;;3.10;1.45;;;;;;;26.58;47.51;102035.66;3615830;39;20069;-65
2023/08/20 08:54:40;;;;;;;2.17;1.10;;;;;;;26.68;47.00;102037.41;3614042;39;20051;-65
2023/08/20 08:57:05;;;;;;;6.13;1.63;;;;;;;26.67;46.71;102013.59;3613131;39;20082;-65
2023/08/20 08:59:32;;;;;;;2.72;1.25;;;;;;;26.94;44.12;102038.09;3613362;39;20123;-65
2023/08/20 09:01:58;;;;;;;2.92;1.15;;;;;;;27.05;45.00;102037.75;3615381;39;20065;-65
2023/08/20 09:04:23;;;;;;;2.85;1.25;;;;;;;27.28;44.76;102046.19;3612544;39;20290;-65
2023/08/20 09:06:51;;;;;;;3.35;1.10;;;;;;;27.45;44.87;102047.00;3616726;39;20518;-65
2023/08/20 09:09:19;;;;;;;2.05;0.85;;;;;;;27.57;41.99;102046.66;3611170;39;20500;-65
2023/08/20 09:11:46;;;;;;;3.05;1.20;;;;;;;27.52;44.84;102006.59;3613786;39;20134;-65
2023/08/20 09:14:27;;;;;;;2.72;1.42;;;;;;;27.90;44.89;102039.97;3614936;39;20130;-65
2023/08/20 09:17:00;;;;;;;4.63;1.60;;;;;;;28.03;43.32;102047.69;3617103;39;20062;-65
2023/08/20 09:19:37;;;;;;;5.53;1.80;;;;;;;27.96;43.04;102019.91;3617006;39;20082;-65
2023/08/20 09:22:03;;;;;;;3.28;1.42;;;;;;;28.25;41.93;102037.72;3613848;39;20043;-65
2023/08/20 09:24:36;;;;;;;3.45;1.20;;;;;;;28.35;42.90;102040.25;3614454;39;20389;-65
2023/08/20 09:27:05;;;;;;;3.58;1.27;;;;;;;28.51;41.82;102036.56;3611272;39;20061;-65
2023/08/20 09:29:53;;;;;;;3.28;1.50;;;;;;;28.66;42.32;102045.78;3606628;39;20377;-65
2023/08/20 09:32:27;;;;;;;3.80;1.17;;;;;;;28.78;42.72;102041.53;3614514;39;20433;-65
2023/08/20 09:34:55;;;;;;;2.17;1.30;;;;;;;28.90;40.70;102045.59;3611558;39;20054;-65
2023/08/20 09:37:24;;;;;;;2.08;1.10;;;;;;;28.98;39.80;102046.56;3611523;39;20047;-65
2023/08/20 09:39:50;;;;;;;3.30;1.15;;;;;;;29.07;40.97;102048.25;3614518;39;20045;-65
2023/08/20 09:42:17;;;;;;;4.80;2.00;;;;;;;29.25;43.53;102048.78;3615451;39;20066;-65
2023/08/20 09:44:46;;;;;;;4.03;1.63;;;;;;;29.37;41.09;102054.72;3613937;39;20377;-65
2023/08/20 09:47:16;;;;;;;4.53;1.20;;;;;;;29.50;39.29;102048.53;3613682;39;20062;-65
2023/08/20 09:49:48;;;;;;;4.00;1.38;;;;;;;29.58;38.32;102054.81;3611522;39;20259;-66
2023/08/20 09:52:30;;;;;;;2.95;1.40;;;;;;;29.50;40.22;102051.28;3616055;39;20115;-66
2023/08/20 09:55:16;;;;;;;3.53;1.03;;;;;;;29.60;40.23;102051.84;3615296;39;20094;-65
2023/08/20 09:57:41;;;;;;;2.50;0.95;;;;;;;29.76;39.61;102048.91;3616647;39;20174;-65
2023/08/20 10:00:11;;;;;;;3.72;0.82;;;;;;;29.89;38.13;102056.56;3614415;39;21762;-66
2023/08/20 10:02:38;;;;;;;0.88;0.60;;;;;;;29.77;35.58;102019.28;3613523;39;20370;-65
2023/08/20 10:05:07;;;;;;;1.20;0.73;;;;;;;30.05;36.20;102053.56;3612838;39;20051;-66
2023/08/20 10:07:35;;;;;;;2.60;0.90;;;;;;;30.09;35.95;102051.25;3613634;39;20051;-67
2023/08/20 10:10:05;;;;;;;2.25;0.90;;;;;;;30.22;37.24;102045.91;3613928;39;20050;-67
2023/08/20 10:12:32;;;;;;;2.08;1.00;;;;;;;30.25;36.63;102051.06;3614017;39;20046;-66
2023/08/20 10:15:02;;;;;;;1.98;0.90;;;;;;;30.30;36.07;102045.78;3606234;39;20077;-65
2023/08/20 10:17:33;;;;;;;1.75;0.80;;;;;;;30.38;36.50;102046.72;3613979;39;20086;-65
2023/08/20 10:20:05;;;;;;;2.70;1.10;;;;;;;30.47;36.48;102051.94;3612647;39;20046;-65
2023/08/20 10:22:39;;;;;;;2.72;0.90;;;;;;;30.39;35.98;102045.69;3614261;39;20063;-66
2023/08/20 10:25:25;;;;;;;1.92;1.13;;;;;;;30.36;36.63;102049.72;3615285;39;20134;-66
2023/08/20 10:27:52;;;;;;;0.65;0.55;;;;;;;30.49;35.76;102046.22;3618375;39;20050;-65
2023/08/20 10:30:26;;;;;;;0.93;0.50;;;;;;;30.59;36.44;102043.97;3613382;39;20082;-65
2023/08/20 10:33:02;;;;;;;1.35;0.70;;;;;;;30.57;35.92;102042.44;3611763;39;20054;-65
2023/08/20 10:35:47;;;;;;;2.22;0.80;;;;;;;30.52;35.88;102037.50;3613571;39;20065;-65
2023/08/20 10:38:18;;;;;;;2.75;0.98;;;;;;;30.65;35.62;102051.50;3612052;39;20055;-65
2023/08/20 10:40:58;;;;;;;1.73;0.80;;;;;;;30.82;33.65;102052.13;3613202;39;20053;-66
2023/08/20 10:43:31;;;;;;;1.63;0.63;;;;;;;30.90;34.21;102042.81;3612295;39;20050;-66
2023/08/20 10:46:23;;;;;;;2.15;1.08;;;;;;;30.84;34.27;102026.94;3607815;39;20325;-67
2023/08/20 10:49:02;;;;;;;2.22;1.00;;;;;;;31.09;33.66;102047.69;3615723;39;20059;-65
2023/08/20 10:51:34;;;;;;;1.67;0.73;;;;;;;31.21;35.26;102051.63;3616095;39;20117;-64
2023/08/20 10:53:59;;;;;;;1.80;0.60;;;;;;;31.31;32.41;102044.84;3617470;39;20404;-65
2023/08/20 10:56:43;;;;;;;1.92;0.80;;;;;;;31.47;31.99;102041.78;3617262;39;20063;-66
2023/08/20 10:59:25;;;;;;;1.73;0.63;;;;;;;31.56;31.58;102039.69;3614923;39;20055;-65
2023/08/20 11:01:54;;;;;;;2.95;0.60;;;;;;;31.71;32.02;102047.91;3618484;39;20062;-65
2023/08/20 11:04:34;;;;;;;2.60;0.80;;;;;;;31.71;32.14;102040.41;3614224;39;20289;-65
2023/08/20 11:07:01;;;;;;;2.28;0.80;;;;;;;31.83;31.88;102049.03;3615809;39;20205;-65
2023/08/20 11:09:31;;;;;;;1.67;0.73;;;;;;;31.91;31.01;102029.44;3616129;39;20059;-66
2023/08/20 11:11:58;;;;;;;1.75;0.80;;;;;;;32.10;31.95;102039.78;3616751;39;20432;-66
2023/08/20 11:14:24;;;;;;;2.55;0.90;;;;;;;32.16;31.59;102042.78;3615730;39;20417;-66
2023/08/20 11:16:51;;;;;;;2.00;0.90;;;;;;;32.28;31.55;102038.34;3618071;39;20139;-66
2023/08/20 11:19:22;;;;;;;2.67;1.10;;;;;;;32.24;30.95;102028.69;3613704;39;20062;-66
2023/08/20 11:21:49;;;;;;;2.00;1.05;;;;;;;32.42;31.41;102037.31;3613757;39;20065;-66
2023/08/20 11:24:16;;;;;;;2.13;0.90;;;;;;;32.62;30.08;102036.53;3616695;39;20298;-66
2023/08/20 11:26:43;;;;;;;1.90;0.88;;;;;;;32.70;30.00;102039.09;3613615;39;20057;-66